sensor_id;sensor_type;location;lat;lon;timestamp;temperature;humidity
12682;DHT22;6405;59.208;18.216;2024-01-10T00:01:43;-1.40;99.90
12682;DHT22;6405;59.208;18.216;2024-01-10T00:04:09;-1.40;99.90
12682;DHT22;6405;59.208;18.216;2024-01-10T00:06:35;-1.40;99.90
12682;DHT22;6405;59.208;18.216;2024-01-10T00:09:00;-1.40;99.90
12682;DHT22;6405;59.208;18.216;2024-01-10T00:11:26;-1.40;99.90
12682;DHT22;6405;59.208;18.216;2024-01-10T00:13:52;-1.30;99.90
12682;DHT22;6405;59.208;18.216;2024-01-10T00:16:17;-1.00;99.90
12682;DHT22;6405;59.208;18.216;2024-01-10T00:18:43;-1.20;99.90
12682;DHT22;6405;59.208;18.216;2024-01-10T00:21:10;-1.20;99.90
12682;DHT22;6405;59.208;18.216;2024-01-10T00:23:36;-1.10;99.90
12682;DHT22;6405;59.208;18.216;2024-01-10T00:26:01;-1.20;99.90
12682;DHT22;6405;59.208;18.216;2024-01-10T00:28:27;-1.50;99.90
12682;DHT22;6405;59.208;18.216;2024-01-10T00:30:52;-1.30;99.90
12682;DHT22;6405;59.208;18.216;2024-01-10T00:33:18;-1.40;99.90
12682;DHT22;6405;59.208;18.216;2024-01-10T00:35:44;-1.50;99.90
12682;DHT22;6405;59.208;18.216;2024-01-10T00:38:10;-1.50;99.90
12682;DHT22;6405;59.208;18.216;2024-01-10T00:40:35;-1.60;99.90
12682;DHT22;6405;59.208;18.216;2024-01-10T00:43:02;-1.60;99.90
12682;DHT22;6405;59.208;18.216;2024-01-10T00:45:28;-1.50;99.90
12682;DHT22;6405;59.208;18.216;2024-01-10T00:47:53;-1.50;99.90
12682;DHT22;6405;59.208;18.216;2024-01-10T00:50:19;-1.50;99.90
12682;DHT22;6405;59.208;18.216;2024-01-10T00:52:45;-1.50;99.90
12682;DHT22;6405;59.208;18.216;2024-01-10T00:55:12;-1.50;99.90
12682;DHT22;6405;59.208;18.216;2024-01-10T00:57:38;-1.50;99.90
12682;DHT22;6405;59.208;18.216;2024-01-10T01:00:08;-1.50;99.90
12682;DHT22;6405;59.208;18.216;2024-01-10T01:02:34;-1.30;99.90
12682;DHT22;6405;59.208;18.216;2024-01-10T01:05:01;-1.40;99.90
12682;DHT22;6405;59.208;18.216;2024-01-10T01:07:27;-1.40;99.90
12682;DHT22;6405;59.208;18.216;2024-01-10T01:09:53;-1.30;99.90
12682;DHT22;6405;59.208;18.216;2024-01-10T01:12:18;-1.60;99.90
12682;DHT22;6405;59.208;18.216;2024-01-10T01:14:44;-1.60;99.90
12682;DHT22;6405;59.208;18.216;2024-01-10T01:17:10;-1.60;99.90
12682;DHT22;6405;59.208;18.216;2024-01-10T01:19:36;-1.60;99.90
12682;DHT22;6405;59.208;18.216;2024-01-10T01:22:02;-1.60;99.90
12682;DHT22;6405;59.208;18.216;2024-01-10T01:24:27;-1.40;99.90
12682;DHT22;6405;59.208;18.216;2024-01-10T01:26:53;-1.50;99.90
12682;DHT22;6405;59.208;18.216;2024-01-10T01:29:19;-1.50;99.90
12682;DHT22;6405;59.208;18.216;2024-01-10T01:31:45;-1.50;99.90
12682;DHT22;6405;59.208;18.216;2024-01-10T01:34:11;-1.50;99.90
12682;DHT22;6405;59.208;18.216;2024-01-10T01:36:37;-1.50;99.90
12682;DHT22;6405;59.208;18.216;2024-01-10T01:39:03;-1.50;99.90
12682;DHT22;6405;59.208;18.216;2024-01-10T01:41:29;-1.40;99.90
12682;DHT22;6405;59.208;18.216;2024-01-10T01:43:54;-1.40;99.90
12682;DHT22;6405;59.208;18.216;2024-01-10T01:46:20;-1.50;99.90
12682;DHT22;6405;59.208;18.216;2024-01-10T01:48:46;-1.60;99.90
12682;DHT22;6405;59.208;18.216;2024-01-10T01:51:12;-1.60;99.90
12682;DHT22;6405;59.208;18.216;2024-01-10T01:53:40;-1.70;99.90
12682;DHT22;6405;59.208;18.216;2024-01-10T01:56:08;-1.60;99.90
12682;DHT22;6405;59.208;18.216;2024-01-10T01:58:35;-1.60;99.90
12682;DHT22;6405;59.208;18.216;2024-01-10T02:01:02;-1.60;99.90
12682;DHT22;6405;59.208;18.216;2024-01-10T02:03:30;-1.60;99.90
12682;DHT22;6405;59.208;18.216;2024-01-10T02:05:57;-1.70;99.90
12682;DHT22;6405;59.208;18.216;2024-01-10T02:08:23;-1.70;99.90
12682;DHT22;6405;59.208;18.216;2024-01-10T02:10:48;-1.80;99.90
12682;DHT22;6405;59.208;18.216;2024-01-10T02:13:15;-1.80;99.90
12682;DHT22;6405;59.208;18.216;2024-01-10T02:15:41;-1.70;99.90
12682;DHT22;6405;59.208;18.216;2024-01-10T02:18:07;-1.60;99.90
12682;DHT22;6405;59.208;18.216;2024-01-10T02:20:33;-1.50;99.90
12682;DHT22;6405;59.208;18.216;2024-01-10T02:22:59;-1.50;99.90
12682;DHT22;6405;59.208;18.216;2024-01-10T02:25:25;-1.40;99.90
12682;DHT22;6405;59.208;18.216;2024-01-10T02:27:50;-1.30;99.90
12682;DHT22;6405;59.208;18.216;2024-01-10T02:30:16;-1.30;99.90
12682;DHT22;6405;59.208;18.216;2024-01-10T02:32:42;-1.30;99.90
12682;DHT22;6405;59.208;18.216;2024-01-10T02:35:07;-1.30;99.90
12682;DHT22;6405;59.208;18.216;2024-01-10T02:37:33;-1.20;99.90
12682;DHT22;6405;59.208;18.216;2024-01-10T02:39:59;-1.20;99.90
12682;DHT22;6405;59.208;18.216;2024-01-10T02:42:27;-1.20;99.90
12682;DHT22;6405;59.208;18.216;2024-01-10T02:44:53;-1.30;99.90
12682;DHT22;6405;59.208;18.216;2024-01-10T02:47:19;-1.20;99.90
12682;DHT22;6405;59.208;18.216;2024-01-10T02:49:44;-1.30;99.90
12682;DHT22;6405;59.208;18.216;2024-01-10T02:52:10;-1.20;99.90
12682;DHT22;6405;59.208;18.216;2024-01-10T02:54:36;-1.10;99.90
12682;DHT22;6405;59.208;18.216;2024-01-10T02:57:02;-1.30;99.90
12682;DHT22;6405;59.208;18.216;2024-01-10T02:59:27;-1.30;99.90
12682;DHT22;6405;59.208;18.216;2024-01-10T03:01:53;-1.30;99.90
12682;DHT22;6405;59.208;18.216;2024-01-10T03:04:19;-1.40;99.90
12682;DHT22;6405;59.208;18.216;2024-01-10T03:06:45;-1.30;99.90
12682;DHT22;6405;59.208;18.216;2024-01-10T03:09:11;-1.40;99.90
12682;DHT22;6405;59.208;18.216;2024-01-10T03:11:36;-1.30;99.90
12682;DHT22;6405;59.208;18.216;2024-01-10T03:14:07;-1.40;99.90
12682;DHT22;6405;59.208;18.216;2024-01-10T03:16:35;-1.40;99.90
12682;DHT22;6405;59.208;18.216;2024-01-10T03:19:01;-1.30;99.90
12682;DHT22;6405;59.208;18.216;2024-01-10T03:21:26;-1.40;99.90
12682;DHT22;6405;59.208;18.216;2024-01-10T03:23:56;-1.40;99.90
12682;DHT22;6405;59.208;18.216;2024-01-10T03:26:23;-1.30;99.90
12682;DHT22;6405;59.208;18.216;2024-01-10T03:28:49;-1.20;99.90
12682;DHT22;6405;59.208;18.216;2024-01-10T03:31:15;-1.30;99.90
12682;DHT22;6405;59.208;18.216;2024-01-10T03:33:41;-1.30;99.90
12682;DHT22;6405;59.208;18.216;2024-01-10T03:36:08;-1.40;99.90
12682;DHT22;6405;59.208;18.216;2024-01-10T03:38:34;-1.50;99.90
12682;DHT22;6405;59.208;18.216;2024-01-10T03:41:00;-1.60;99.90
12682;DHT22;6405;59.208;18.216;2024-01-10T03:43:25;-1.70;99.90
12682;DHT22;6405;59.208;18.216;2024-01-10T03:45:51;-1.70;99.90
12682;DHT22;6405;59.208;18.216;2024-01-10T03:48:17;-1.70;99.90
12682;DHT22;6405;59.208;18.216;2024-01-10T03:50:42;-1.60;99.90
12682;DHT22;6405;59.208;18.216;2024-01-10T03:53:08;-1.50;99.90
12682;DHT22;6405;59.208;18.216;2024-01-10T03:55:34;-1.60;99.90
12682;DHT22;6405;59.208;18.216;2024-01-10T03:57:59;-1.70;99.90
12682;DHT22;6405;59.208;18.216;2024-01-10T04:00:25;-1.50;99.90
12682;DHT22;6405;59.208;18.216;2024-01-10T04:02:52;-1.60;99.90
12682;DHT22;6405;59.208;18.216;2024-01-10T04:05:18;-1.60;99.90
12682;DHT22;6405;59.208;18.216;2024-01-10T04:07:46;-1.60;99.90
12682;DHT22;6405;59.208;18.216;2024-01-10T04:10:13;-1.60;99.90
12682;DHT22;6405;59.208;18.216;2024-01-10T04:12:40;-1.50;99.90
12682;DHT22;6405;59.208;18.216;2024-01-10T04:15:06;-1.50;99.90
12682;DHT22;6405;59.208;18.216;2024-01-10T04:17:32;-1.60;99.90
12682;DHT22;6405;59.208;18.216;2024-01-10T04:19:58;-1.70;99.90
12682;DHT22;6405;59.208;18.216;2024-01-10T04:22:24;-1.70;99.90
12682;DHT22;6405;59.208;18.216;2024-01-10T04:24:50;-1.90;99.90
12682;DHT22;6405;59.208;18.216;2024-01-10T04:27:16;-1.70;99.90
12682;DHT22;6405;59.208;18.216;2024-01-10T04:29:41;-1.90;99.90
12682;DHT22;6405;59.208;18.216;2024-01-10T04:32:08;-1.90;99.90
12682;DHT22;6405;59.208;18.216;2024-01-10T04:34:33;-1.80;99.90
12682;DHT22;6405;59.208;18.216;2024-01-10T04:36:59;-1.80;99.90
12682;DHT22;6405;59.208;18.216;2024-01-10T04:39:25;-1.70;99.90
12682;DHT22;6405;59.208;18.216;2024-01-10T04:41:50;-1.80;99.90
12682;DHT22;6405;59.208;18.216;2024-01-10T04:44:16;-1.80;99.90
12682;DHT22;6405;59.208;18.216;2024-01-10T04:46:42;-1.80;99.90
12682;DHT22;6405;59.208;18.216;2024-01-10T04:49:07;-1.80;99.90
12682;DHT22;6405;59.208;18.216;2024-01-10T04:51:33;-1.70;99.90
12682;DHT22;6405;59.208;18.216;2024-01-10T04:53:59;-1.70;99.90
12682;DHT22;6405;59.208;18.216;2024-01-10T04:56:25;-1.70;99.90
12682;DHT22;6405;59.208;18.216;2024-01-10T04:58:51;-1.60;99.90
12682;DHT22;6405;59.208;18.216;2024-01-10T05:01:17;-1.80;99.90
12682;DHT22;6405;59.208;18.216;2024-01-10T05:03:43;-1.70;99.90
12682;DHT22;6405;59.208;18.216;2024-01-10T05:06:09;-1.80;99.90
12682;DHT22;6405;59.208;18.216;2024-01-10T05:08:35;-1.90;99.90
12682;DHT22;6405;59.208;18.216;2024-01-10T05:11:00;-1.90;99.90
12682;DHT22;6405;59.208;18.216;2024-01-10T05:13:26;-1.90;99.90
12682;DHT22;6405;59.208;18.216;2024-01-10T05:15:52;-1.90;99.90
12682;DHT22;6405;59.208;18.216;2024-01-10T05:18:18;-1.70;99.90
12682;DHT22;6405;59.208;18.216;2024-01-10T05:20:44;-1.80;99.90
12682;DHT22;6405;59.208;18.216;2024-01-10T05:23:10;-1.80;99.90
12682;DHT22;6405;59.208;18.216;2024-01-10T05:25:36;-1.90;99.90
12682;DHT22;6405;59.208;18.216;2024-01-10T05:28:02;-1.90;99.90
12682;DHT22;6405;59.208;18.216;2024-01-10T05:30:27;-1.90;99.90
12682;DHT22;6405;59.208;18.216;2024-01-10T05:32:53;-1.90;99.90
12682;DHT22;6405;59.208;18.216;2024-01-10T05:35:19;-2.00;99.90
12682;DHT22;6405;59.208;18.216;2024-01-10T05:37:45;-2.00;99.90
12682;DHT22;6405;59.208;18.216;2024-01-10T05:40:11;-2.00;99.90
12682;DHT22;6405;59.208;18.216;2024-01-10T05:42:37;-2.10;99.90
12682;DHT22;6405;59.208;18.216;2024-01-10T05:45:04;-2.20;99.90
12682;DHT22;6405;59.208;18.216;2024-01-10T05:47:30;-2.20;99.90
12682;DHT22;6405;59.208;18.216;2024-01-10T05:49:55;-2.20;99.90
12682;DHT22;6405;59.208;18.216;2024-01-10T05:52:21;-2.20;99.90
12682;DHT22;6405;59.208;18.216;2024-01-10T05:54:48;-2.20;99.90
12682;DHT22;6405;59.208;18.216;2024-01-10T05:57:14;-2.20;99.90
12682;DHT22;6405;59.208;18.216;2024-01-10T05:59:41;-2.00;99.90
12682;DHT22;6405;59.208;18.216;2024-01-10T06:02:07;-2.00;99.90
12682;DHT22;6405;59.208;18.216;2024-01-10T06:04:32;-2.20;99.90
12682;DHT22;6405;59.208;18.216;2024-01-10T06:06:58;-2.20;99.90
12682;DHT22;6405;59.208;18.216;2024-01-10T06:09:24;-2.30;99.90
12682;DHT22;6405;59.208;18.216;2024-01-10T06:11:50;-2.40;99.90
12682;DHT22;6405;59.208;18.216;2024-01-10T06:14:16;-2.30;99.90
12682;DHT22;6405;59.208;18.216;2024-01-10T06:16:42;-2.30;99.90
12682;DHT22;6405;59.208;18.216;2024-01-10T06:19:09;-2.30;99.90
12682;DHT22;6405;59.208;18.216;2024-01-10T06:21:36;-2.20;99.90
12682;DHT22;6405;59.208;18.216;2024-01-10T06:24:02;-2.20;99.90
12682;DHT22;6405;59.208;18.216;2024-01-10T06:26:28;-2.20;99.90
12682;DHT22;6405;59.208;18.216;2024-01-10T06:28:53;-2.20;99.90
12682;DHT22;6405;59.208;18.216;2024-01-10T06:31:19;-2.20;99.90
12682;DHT22;6405;59.208;18.216;2024-01-10T06:33:45;-2.20;99.90
12682;DHT22;6405;59.208;18.216;2024-01-10T06:36:11;-2.30;99.90
12682;DHT22;6405;59.208;18.216;2024-01-10T06:38:39;-2.30;99.90
12682;DHT22;6405;59.208;18.216;2024-01-10T06:41:11;-2.30;99.90
12682;DHT22;6405;59.208;18.216;2024-01-10T06:43:39;-2.20;99.90
12682;DHT22;6405;59.208;18.216;2024-01-10T06:46:06;-2.50;99.90
12682;DHT22;6405;59.208;18.216;2024-01-10T06:48:32;-2.60;99.90
12682;DHT22;6405;59.208;18.216;2024-01-10T06:50:59;-2.60;99.90
12682;DHT22;6405;59.208;18.216;2024-01-10T06:53:24;-2.60;99.90
12682;DHT22;6405;59.208;18.216;2024-01-10T06:55:50;-2.60;99.90
12682;DHT22;6405;59.208;18.216;2024-01-10T06:58:16;-2.70;99.90
12682;DHT22;6405;59.208;18.216;2024-01-10T07:00:42;-2.70;99.90
12682;DHT22;6405;59.208;18.216;2024-01-10T07:03:07;-2.80;99.90
12682;DHT22;6405;59.208;18.216;2024-01-10T07:05:33;-2.80;99.90
12682;DHT22;6405;59.208;18.216;2024-01-10T07:08:00;-2.80;99.90
12682;DHT22;6405;59.208;18.216;2024-01-10T07:10:28;-2.80;99.90
12682;DHT22;6405;59.208;18.216;2024-01-10T07:12:55;-2.80;99.90
12682;DHT22;6405;59.208;18.216;2024-01-10T07:15:21;-2.80;99.90
12682;DHT22;6405;59.208;18.216;2024-01-10T07:17:47;-2.80;99.90
12682;DHT22;6405;59.208;18.216;2024-01-10T07:20:13;-2.70;99.90
12682;DHT22;6405;59.208;18.216;2024-01-10T07:22:39;-2.80;99.90
12682;DHT22;6405;59.208;18.216;2024-01-10T07:25:10;-2.80;99.90
12682;DHT22;6405;59.208;18.216;2024-01-10T07:27:42;-2.80;99.90
12682;DHT22;6405;59.208;18.216;2024-01-10T07:30:09;-2.70;99.90
12682;DHT22;6405;59.208;18.216;2024-01-10T07:32:45;-2.70;99.90
12682;DHT22;6405;59.208;18.216;2024-01-10T07:35:12;-2.70;99.90
12682;DHT22;6405;59.208;18.216;2024-01-10T07:37:40;-2.80;99.90
12682;DHT22;6405;59.208;18.216;2024-01-10T07:40:09;-2.60;99.90
12682;DHT22;6405;59.208;18.216;2024-01-10T07:42:36;-2.70;99.90
12682;DHT22;6405;59.208;18.216;2024-01-10T07:45:03;-2.40;99.90
12682;DHT22;6405;59.208;18.216;2024-01-10T07:47:35;-2.70;99.90
12682;DHT22;6405;59.208;18.216;2024-01-10T07:50:06;-2.80;99.90
12682;DHT22;6405;59.208;18.216;2024-01-10T07:52:32;-2.80;99.90
12682;DHT22;6405;59.208;18.216;2024-01-10T07:54:58;-2.90;99.90
12682;DHT22;6405;59.208;18.216;2024-01-10T07:57:23;-2.90;99.90
12682;DHT22;6405;59.208;18.216;2024-01-10T07:59:49;-3.00;99.90
12682;DHT22;6405;59.208;18.216;2024-01-10T08:02:15;-3.00;99.90
12682;DHT22;6405;59.208;18.216;2024-01-10T08:04:42;-3.00;99.90
12682;DHT22;6405;59.208;18.216;2024-01-10T08:07:08;-3.10;99.90
12682;DHT22;6405;59.208;18.216;2024-01-10T08:09:33;-3.20;99.90
12682;DHT22;6405;59.208;18.216;2024-01-10T08:12:00;-3.20;99.90
12682;DHT22;6405;59.208;18.216;2024-01-10T08:14:26;-3.20;99.90
12682;DHT22;6405;59.208;18.216;2024-01-10T08:16:52;-3.10;99.90
12682;DHT22;6405;59.208;18.216;2024-01-10T08:19:24;-3.00;99.90
12682;DHT22;6405;59.208;18.216;2024-01-10T08:21:53;-2.90;99.90
12682;DHT22;6405;59.208;18.216;2024-01-10T08:24:19;-2.90;99.90
12682;DHT22;6405;59.208;18.216;2024-01-10T08:26:46;-2.90;99.90
12682;DHT22;6405;59.208;18.216;2024-01-10T08:29:15;-2.90;99.90
12682;DHT22;6405;59.208;18.216;2024-01-10T08:31:40;-3.00;99.90
12682;DHT22;6405;59.208;18.216;2024-01-10T08:34:06;-2.90;99.90
12682;DHT22;6405;59.208;18.216;2024-01-10T08:36:32;-2.80;99.90
12682;DHT22;6405;59.208;18.216;2024-01-10T08:38:57;-2.60;99.90
12682;DHT22;6405;59.208;18.216;2024-01-10T08:41:23;-2.50;99.90
12682;DHT22;6405;59.208;18.216;2024-01-10T08:43:49;-2.40;99.90
12682;DHT22;6405;59.208;18.216;2024-01-10T08:46:14;-2.30;99.90
12682;DHT22;6405;59.208;18.216;2024-01-10T08:48:40;-2.10;99.90
12682;DHT22;6405;59.208;18.216;2024-01-10T08:51:06;-2.10;99.90
12682;DHT22;6405;59.208;18.216;2024-01-10T08:53:31;-1.90;99.90
12682;DHT22;6405;59.208;18.216;2024-01-10T08:55:58;-1.60;99.90
12682;DHT22;6405;59.208;18.216;2024-01-10T08:58:23;-1.50;99.90
12682;DHT22;6405;59.208;18.216;2024-01-10T09:00:49;-1.40;99.90
12682;DHT22;6405;59.208;18.216;2024-01-10T09:03:15;-1.30;99.90
12682;DHT22;6405;59.208;18.216;2024-01-10T09:05:41;-1.00;99.90
12682;DHT22;6405;59.208;18.216;2024-01-10T09:08:07;-1.20;99.90
12682;DHT22;6405;59.208;18.216;2024-01-10T09:10:32;-1.20;99.90
12682;DHT22;6405;59.208;18.216;2024-01-10T09:12:58;-1.10;99.90
12682;DHT22;6405;59.208;18.216;2024-01-10T09:15:24;-0.90;99.90
12682;DHT22;6405;59.208;18.216;2024-01-10T09:17:50;-0.90;99.90
12682;DHT22;6405;59.208;18.216;2024-01-10T09:20:17;-0.70;99.90
12682;DHT22;6405;59.208;18.216;2024-01-10T09:22:43;-0.60;99.90
12682;DHT22;6405;59.208;18.216;2024-01-10T09:25:09;-0.60;99.90
12682;DHT22;6405;59.208;18.216;2024-01-10T09:27:39;-0.60;99.90
12682;DHT22;6405;59.208;18.216;2024-01-10T09:30:09;-0.60;99.90
12682;DHT22;6405;59.208;18.216;2024-01-10T09:32:35;-0.50;99.90
12682;DHT22;6405;59.208;18.216;2024-01-10T09:35:02;-0.40;99.90
12682;DHT22;6405;59.208;18.216;2024-01-10T09:37:28;-0.50;99.90
12682;DHT22;6405;59.208;18.216;2024-01-10T09:39:53;-0.40;99.90
12682;DHT22;6405;59.208;18.216;2024-01-10T09:42:20;-0.30;99.90
12682;DHT22;6405;59.208;18.216;2024-01-10T09:44:51;-0.40;99.90
12682;DHT22;6405;59.208;18.216;2024-01-10T09:47:19;-0.30;99.90
12682;DHT22;6405;59.208;18.216;2024-01-10T09:49:46;-0.30;99.90
12682;DHT22;6405;59.208;18.216;2024-01-10T09:52:26;-0.10;99.90
12682;DHT22;6405;59.208;18.216;2024-01-10T09:54:56;-0.10;99.90
12682;DHT22;6405;59.208;18.216;2024-01-10T09:57:25;-0.10;99.90
12682;DHT22;6405;59.208;18.216;2024-01-10T09:59:51;-0.10;99.90
12682;DHT22;6405;59.208;18.216;2024-01-10T10:02:18;-0.10;99.90
12682;DHT22;6405;59.208;18.216;2024-01-10T10:05:01;0.00;99.90
12682;DHT22;6405;59.208;18.216;2024-01-10T10:07:28;0.10;99.90
12682;DHT22;6405;59.208;18.216;2024-01-10T10:09:54;0.10;99.90
12682;DHT22;6405;59.208;18.216;2024-01-10T10:12:22;0.20;99.90
12682;DHT22;6405;59.208;18.216;2024-01-10T10:14:49;0.20;99.90
12682;DHT22;6405;59.208;18.216;2024-01-10T10:17:16;0.20;99.90
12682;DHT22;6405;59.208;18.216;2024-01-10T10:19:42;0.40;99.90
12682;DHT22;6405;59.208;18.216;2024-01-10T10:22:08;0.40;99.90
12682;DHT22;6405;59.208;18.216;2024-01-10T10:24:38;0.50;99.90
12682;DHT22;6405;59.208;18.216;2024-01-10T10:27:11;0.60;99.90
12682;DHT22;6405;59.208;18.216;2024-01-10T10:29:38;0.60;99.90
12682;DHT22;6405;59.208;18.216;2024-01-10T10:32:05;0.60;99.90
12682;DHT22;6405;59.208;18.216;2024-01-10T10:34:31;0.70;99.90
12682;DHT22;6405;59.208;18.216;2024-01-10T10:37:01;0.90;99.90
12682;DHT22;6405;59.208;18.216;2024-01-10T10:39:28;0.80;99.90
12682;DHT22;6405;59.208;18.216;2024-01-10T10:41:54;0.90;99.90
12682;DHT22;6405;59.208;18.216;2024-01-10T10:44:24;1.00;99.90
12682;DHT22;6405;59.208;18.216;2024-01-10T10:46:53;1.00;99.90
12682;DHT22;6405;59.208;18.216;2024-01-10T10:49:28;1.10;99.90
12682;DHT22;6405;59.208;18.216;2024-01-10T10:51:58;1.10;99.90
12682;DHT22;6405;59.208;18.216;2024-01-10T10:54:27;1.20;99.90
12682;DHT22;6405;59.208;18.216;2024-01-10T10:56:54;1.20;99.90
12682;DHT22;6405;59.208;18.216;2024-01-10T10:59:21;1.30;99.90
12682;DHT22;6405;59.208;18.216;2024-01-10T11:01:47;1.30;99.90
12682;DHT22;6405;59.208;18.216;2024-01-10T11:04:15;1.40;99.90
12682;DHT22;6405;59.208;18.216;2024-01-10T11:06:40;1.50;99.90
12682;DHT22;6405;59.208;18.216;2024-01-10T11:09:10;1.50;99.90
12682;DHT22;6405;59.208;18.216;2024-01-10T11:17:44;1.60;99.90
12682;DHT22;6405;59.208;18.216;2024-01-10T11:20:21;1.70;99.90
12682;DHT22;6405;59.208;18.216;2024-01-10T11:23:02;1.80;99.90
12682;DHT22;6405;59.208;18.216;2024-01-10T11:25:35;1.80;99.90
12682;DHT22;6405;59.208;18.216;2024-01-10T11:28:05;1.90;99.90
12682;DHT22;6405;59.208;18.216;2024-01-10T11:30:35;1.90;99.90
12682;DHT22;6405;59.208;18.216;2024-01-10T11:33:23;1.90;99.90
12682;DHT22;6405;59.208;18.216;2024-01-10T11:36:07;2.00;99.90
12682;DHT22;6405;59.208;18.216;2024-01-10T11:41:35;2.00;99.90
12682;DHT22;6405;59.208;18.216;2024-01-10T11:46:39;2.00;99.90
12682;DHT22;6405;59.208;18.216;2024-01-10T11:49:13;2.20;99.90
12682;DHT22;6405;59.208;18.216;2024-01-10T11:51:45;2.20;99.90
12682;DHT22;6405;59.208;18.216;2024-01-10T11:54:11;2.30;99.90
12682;DHT22;6405;59.208;18.216;2024-01-10T11:56:43;2.30;99.90
12682;DHT22;6405;59.208;18.216;2024-01-10T11:59:13;2.30;99.90
12682;DHT22;6405;59.208;18.216;2024-01-10T12:01:42;2.30;99.90
12682;DHT22;6405;59.208;18.216;2024-01-10T12:04:08;2.20;99.90
12682;DHT22;6405;59.208;18.216;2024-01-10T12:06:35;2.20;99.90
12682;DHT22;6405;59.208;18.216;2024-01-10T12:09:02;2.20;99.90
12682;DHT22;6405;59.208;18.216;2024-01-10T12:11:37;2.20;99.90
12682;DHT22;6405;59.208;18.216;2024-01-10T12:14:05;2.20;99.90
12682;DHT22;6405;59.208;18.216;2024-01-10T12:16:32;2.10;99.90
12682;DHT22;6405;59.208;18.216;2024-01-10T12:18:58;2.10;99.90
12682;DHT22;6405;59.208;18.216;2024-01-10T12:21:24;2.10;99.90
12682;DHT22;6405;59.208;18.216;2024-01-10T12:23:50;2.10;99.90
12682;DHT22;6405;59.208;18.216;2024-01-10T12:26:17;2.10;99.90
12682;DHT22;6405;59.208;18.216;2024-01-10T12:28:57;2.10;99.90
12682;DHT22;6405;59.208;18.216;2024-01-10T12:31:23;2.00;99.90
12682;DHT22;6405;59.208;18.216;2024-01-10T12:33:49;2.10;99.90
12682;DHT22;6405;59.208;18.216;2024-01-10T12:36:17;2.00;99.90
12682;DHT22;6405;59.208;18.216;2024-01-10T12:38:43;1.90;99.90
12682;DHT22;6405;59.208;18.216;2024-01-10T12:41:10;1.90;99.90
12682;DHT22;6405;59.208;18.216;2024-01-10T12:43:36;1.80;99.90
12682;DHT22;6405;59.208;18.216;2024-01-10T12:46:06;1.70;99.90
12682;DHT22;6405;59.208;18.216;2024-01-10T12:48:33;1.70;99.90
12682;DHT22;6405;59.208;18.216;2024-01-10T12:51:02;1.60;99.90
12682;DHT22;6405;59.208;18.216;2024-01-10T12:53:35;1.50;99.90
12682;DHT22;6405;59.208;18.216;2024-01-10T12:56:02;1.60;99.90
12682;DHT22;6405;59.208;18.216;2024-01-10T12:58:28;1.40;99.90
12682;DHT22;6405;59.208;18.216;2024-01-10T13:00:55;1.40;99.90
12682;DHT22;6405;59.208;18.216;2024-01-10T13:03:21;1.40;99.90
12682;DHT22;6405;59.208;18.216;2024-01-10T13:05:47;1.40;99.90
12682;DHT22;6405;59.208;18.216;2024-01-10T13:08:13;1.40;99.90
12682;DHT22;6405;59.208;18.216;2024-01-10T13:10:39;1.20;99.90
12682;DHT22;6405;59.208;18.216;2024-01-10T13:13:05;1.10;99.90
12682;DHT22;6405;59.208;18.216;2024-01-10T13:15:31;1.30;99.90
12682;DHT22;6405;59.208;18.216;2024-01-10T13:17:56;1.10;99.90
12682;DHT22;6405;59.208;18.216;2024-01-10T13:20:23;1.10;99.90
12682;DHT22;6405;59.208;18.216;2024-01-10T13:22:50;1.10;99.90
12682;DHT22;6405;59.208;18.216;2024-01-10T13:25:16;1.10;99.90
12682;DHT22;6405;59.208;18.216;2024-01-10T13:27:42;1.30;99.90
12682;DHT22;6405;59.208;18.216;2024-01-10T13:30:09;1.10;99.90
12682;DHT22;6405;59.208;18.216;2024-01-10T13:32:38;1.00;99.90
12682;DHT22;6405;59.208;18.216;2024-01-10T13:35:04;0.90;99.90
12682;DHT22;6405;59.208;18.216;2024-01-10T13:37:30;0.90;99.90
12682;DHT22;6405;59.208;18.216;2024-01-10T13:39:57;1.10;99.90
12682;DHT22;6405;59.208;18.216;2024-01-10T13:42:23;0.90;99.90
12682;DHT22;6405;59.208;18.216;2024-01-10T13:44:49;1.00;99.90
12682;DHT22;6405;59.208;18.216;2024-01-10T13:47:18;0.90;99.90
12682;DHT22;6405;59.208;18.216;2024-01-10T13:49:43;0.90;99.90
12682;DHT22;6405;59.208;18.216;2024-01-10T13:52:09;1.00;99.90
12682;DHT22;6405;59.208;18.216;2024-01-10T13:54:35;0.70;99.90
12682;DHT22;6405;59.208;18.216;2024-01-10T13:57:02;0.70;99.90
12682;DHT22;6405;59.208;18.216;2024-01-10T13:59:28;0.70;99.90
12682;DHT22;6405;59.208;18.216;2024-01-10T14:01:55;0.70;99.90
12682;DHT22;6405;59.208;18.216;2024-01-10T14:04:21;0.60;99.90
12682;DHT22;6405;59.208;18.216;2024-01-10T14:06:48;0.70;99.90
12682;DHT22;6405;59.208;18.216;2024-01-10T14:09:14;0.50;99.90
12682;DHT22;6405;59.208;18.216;2024-01-10T14:11:39;0.50;99.90
12682;DHT22;6405;59.208;18.216;2024-01-10T14:14:05;0.60;99.90
12682;DHT22;6405;59.208;18.216;2024-01-10T14:16:31;0.40;99.90
12682;DHT22;6405;59.208;18.216;2024-01-10T14:18:57;0.40;99.90
12682;DHT22;6405;59.208;18.216;2024-01-10T14:21:22;0.30;99.90
12682;DHT22;6405;59.208;18.216;2024-01-10T14:23:48;0.30;99.90
12682;DHT22;6405;59.208;18.216;2024-01-10T14:26:15;0.30;99.90
12682;DHT22;6405;59.208;18.216;2024-01-10T14:28:41;0.30;99.90
12682;DHT22;6405;59.208;18.216;2024-01-10T14:31:06;0.30;99.90
12682;DHT22;6405;59.208;18.216;2024-01-10T14:33:32;0.50;99.90
12682;DHT22;6405;59.208;18.216;2024-01-10T14:36:01;0.30;99.90
12682;DHT22;6405;59.208;18.216;2024-01-10T14:38:29;0.20;99.90
12682;DHT22;6405;59.208;18.216;2024-01-10T14:40:55;0.30;99.90
12682;DHT22;6405;59.208;18.216;2024-01-10T14:43:21;0.30;99.90
12682;DHT22;6405;59.208;18.216;2024-01-10T14:45:46;0.30;99.90
12682;DHT22;6405;59.208;18.216;2024-01-10T14:48:12;0.50;99.90
12682;DHT22;6405;59.208;18.216;2024-01-10T14:50:38;0.40;99.90
12682;DHT22;6405;59.208;18.216;2024-01-10T14:53:03;0.50;99.90
12682;DHT22;6405;59.208;18.216;2024-01-10T14:55:29;0.50;99.90
12682;DHT22;6405;59.208;18.216;2024-01-10T14:57:55;0.60;99.90
12682;DHT22;6405;59.208;18.216;2024-01-10T15:00:21;0.60;99.90
12682;DHT22;6405;59.208;18.216;2024-01-10T15:02:46;0.60;99.90
12682;DHT22;6405;59.208;18.216;2024-01-10T15:05:12;0.60;99.90
12682;DHT22;6405;59.208;18.216;2024-01-10T15:07:38;0.60;99.90
12682;DHT22;6405;59.208;18.216;2024-01-10T15:10:04;0.60;99.90
12682;DHT22;6405;59.208;18.216;2024-01-10T15:12:30;0.60;99.90
12682;DHT22;6405;59.208;18.216;2024-01-10T15:14:56;0.50;99.90
12682;DHT22;6405;59.208;18.216;2024-01-10T15:17:28;0.60;99.90
12682;DHT22;6405;59.208;18.216;2024-01-10T15:19:54;0.50;99.90
12682;DHT22;6405;59.208;18.216;2024-01-10T15:22:20;0.50;99.90
12682;DHT22;6405;59.208;18.216;2024-01-10T15:24:45;0.50;99.90
12682;DHT22;6405;59.208;18.216;2024-01-10T15:27:12;0.50;99.90
12682;DHT22;6405;59.208;18.216;2024-01-10T15:29:38;0.50;99.90
12682;DHT22;6405;59.208;18.216;2024-01-10T15:32:05;0.50;99.90
12682;DHT22;6405;59.208;18.216;2024-01-10T15:34:31;0.60;99.90
12682;DHT22;6405;59.208;18.216;2024-01-10T15:36:57;0.40;99.90
12682;DHT22;6405;59.208;18.216;2024-01-10T15:39:24;0.30;99.90
12682;DHT22;6405;59.208;18.216;2024-01-10T15:41:51;0.30;99.90
12682;DHT22;6405;59.208;18.216;2024-01-10T15:44:19;0.30;99.90